createdAt,value
2019-03-29T00:01:48.937Z,20.15
2019-03-29T00:04:14.893Z,20.43
2019-03-29T00:06:40.989Z,18.98
2019-03-29T00:09:07.021Z,19.62
2019-03-29T00:11:33.027Z,18.67
2019-03-29T00:13:59.066Z,19.67
2019-03-29T00:16:25.917Z,18.02
2019-03-29T00:18:52.148Z,19.50
2019-03-29T00:21:18.109Z,19.70
2019-03-29T00:23:44.099Z,19.15
2019-03-29T00:26:10.113Z,19.77
2019-03-29T00:28:36.852Z,32.93
2019-03-29T00:31:02.955Z,33.30
2019-03-29T00:33:28.931Z,36.80
2019-03-29T00:35:54.930Z,34.08
2019-03-29T00:38:20.958Z,53.83
2019-03-29T00:40:46.903Z,74.07
2019-03-29T00:43:12.865Z,59.18
2019-03-29T00:45:38.875Z,46.42
2019-03-29T00:48:04.823Z,43.40
2019-03-29T00:50:30.866Z,44.70
2019-03-29T00:52:56.821Z,41.83
2019-03-29T00:55:22.827Z,40.38
2019-03-29T00:57:48.854Z,38.17
2019-03-29T01:00:14.866Z,36.30
2019-03-29T01:02:40.914Z,33.48
2019-03-29T01:05:06.941Z,32.13
2019-03-29T01:07:32.965Z,31.52
2019-03-29T01:09:58.911Z,32.15
2019-03-29T01:12:24.905Z,30.95
2019-03-29T01:14:50.931Z,30.27
2019-03-29T01:17:16.876Z,27.15
2019-03-29T01:19:42.916Z,29.70
2019-03-29T01:22:08.916Z,26.65
2019-03-29T01:24:34.976Z,26.33
2019-03-29T01:27:01.062Z,27.75
2019-03-29T01:29:27.084Z,29.32
2019-03-29T01:31:53.036Z,28.62
2019-03-29T01:34:19.059Z,27.60
2019-03-29T01:36:45.017Z,28.25
2019-03-29T01:39:11.074Z,27.55
2019-03-29T01:41:37.147Z,27.00
2019-03-29T01:44:03.122Z,26.70
2019-03-29T01:46:29.147Z,26.33
2019-03-29T01:48:55.177Z,27.40
2019-03-29T01:51:21.210Z,28.65
2019-03-29T01:53:47.156Z,27.93
2019-03-29T01:56:13.126Z,26.23
2019-03-29T01:58:39.162Z,27.48
2019-03-29T02:01:05.110Z,26.70
2019-03-29T02:03:31.064Z,27.42
2019-03-29T02:05:57.053Z,27.87
2019-03-29T02:08:35.202Z,27.35
2019-03-29T02:10:50.870Z,26.62
2019-03-29T02:13:16.924Z,28.95
2019-03-29T02:15:43.002Z,26.15
2019-03-29T02:18:09.036Z,29.77
2019-03-29T02:20:35.020Z,27.32
2019-03-29T02:23:00.993Z,27.45
2019-03-29T02:25:26.944Z,27.95
2019-03-29T02:27:53.095Z,23.92
2019-03-29T02:30:19.470Z,26.75
2019-03-29T02:32:45.428Z,22.70
2019-03-29T02:35:11.920Z,31.02
2019-03-29T02:37:38.058Z,30.85
2019-03-29T02:40:04.019Z,21.80
2019-03-29T02:42:29.963Z,21.12
2019-03-29T02:44:55.940Z,27.13
2019-03-29T02:47:22.102Z,19.23
2019-03-29T02:49:48.297Z,18.55
2019-03-29T02:52:14.316Z,19.30
2019-03-29T02:54:40.321Z,18.45
2019-03-29T02:57:06.349Z,18.55
2019-03-29T02:59:32.304Z,28.23
2019-03-29T03:01:58.282Z,24.57
2019-03-29T03:04:24.352Z,23.80
2019-03-29T03:06:50.300Z,31.50
2019-03-29T03:09:16.375Z,20.15
2019-03-29T03:11:42.354Z,19.32
2019-03-29T03:14:08.437Z,18.50
2019-03-29T03:16:34.527Z,17.32
2019-03-29T03:19:00.596Z,18.12
2019-03-29T03:21:26.604Z,17.55
2019-03-29T03:23:52.579Z,18.60
2019-03-29T03:26:18.541Z,22.62
2019-03-29T03:28:44.525Z,17.75
2019-03-29T03:31:10.594Z,17.85
2019-03-29T03:33:36.619Z,17.07
2019-03-29T03:36:02.669Z,17.75
2019-03-29T03:38:28.612Z,18.73
2019-03-29T03:40:54.614Z,21.02
2019-03-29T03:43:20.564Z,16.10
2019-03-29T03:45:46.521Z,16.90
2019-03-29T03:48:12.606Z,16.82
2019-03-29T03:50:38.659Z,16.20
2019-03-29T03:53:04.612Z,16.10
2019-03-29T03:55:30.748Z,16.40
2019-03-29T03:57:58.001Z,16.90
2019-03-29T04:00:24.235Z,24.72
2019-03-29T04:02:50.305Z,17.75
2019-03-29T04:05:16.250Z,17.52
2019-03-29T04:07:42.370Z,16.80
2019-03-29T04:10:08.443Z,15.98
2019-03-29T04:12:34.423Z,16.93
2019-03-29T04:15:00.469Z,16.55
2019-03-29T04:17:26.699Z,17.80
2019-03-29T04:19:52.761Z,21.17
2019-03-29T04:22:18.853Z,21.35
2019-03-29T04:24:44.892Z,20.23
2019-03-29T04:27:10.966Z,20.95
2019-03-29T04:29:36.932Z,22.67
2019-03-29T04:32:02.907Z,21.35
2019-03-29T04:34:29.066Z,20.27
2019-03-29T04:36:55.144Z,23.67
2019-03-29T04:39:21.114Z,27.22
2019-03-29T04:41:47.155Z,49.18
2019-03-29T04:44:13.234Z,28.52
2019-03-29T04:46:39.244Z,22.62
2019-03-29T04:49:05.289Z,95.77
2019-03-29T04:51:31.296Z,156.67
2019-03-29T04:53:57.367Z,97.42
2019-03-29T04:56:23.348Z,128.55
2019-03-29T04:58:49.357Z,246.10
2019-03-29T05:01:17.351Z,48.60
2019-03-29T05:03:43.195Z,32.42
2019-03-29T05:06:09.242Z,31.62
2019-03-29T05:08:35.193Z,29.82
2019-03-29T05:11:01.282Z,31.57
2019-03-29T05:13:27.245Z,37.33
2019-03-29T05:15:53.199Z,29.60
2019-03-29T05:18:19.207Z,30.45
2019-03-29T05:20:45.165Z,29.07
2019-03-29T05:23:11.288Z,24.92
2019-03-29T05:25:37.358Z,24.90
2019-03-29T05:28:03.428Z,25.23
2019-03-29T05:30:29.402Z,26.73
2019-03-29T05:32:55.389Z,23.02
2019-03-29T05:35:21.487Z,22.45
2019-03-29T05:37:47.533Z,26.00
2019-03-29T05:40:13.658Z,27.95
2019-03-29T05:42:39.622Z,32.33
2019-03-29T05:45:05.702Z,33.53
2019-03-29T05:47:31.667Z,31.20
2019-03-29T05:49:57.673Z,30.95
2019-03-29T05:52:23.606Z,28.15
2019-03-29T05:54:49.588Z,30.90
2019-03-29T05:57:15.597Z,29.27
2019-03-29T05:59:41.524Z,24.92
2019-03-29T06:02:07.500Z,25.77
2019-03-29T06:04:33.495Z,24.47
2019-03-29T06:06:59.567Z,23.32
2019-03-29T06:09:25.692Z,21.82
2019-03-29T06:11:51.774Z,26.62
2019-03-29T06:14:17.746Z,23.32
2019-03-29T06:16:43.829Z,24.02
2019-03-29T06:19:09.825Z,21.65
2019-03-29T06:21:35.775Z,24.43
2019-03-29T06:24:02.230Z,25.23
2019-03-29T06:26:28.253Z,23.27
2019-03-29T06:28:54.264Z,24.10
2019-03-29T06:31:20.326Z,21.85
2019-03-29T06:33:46.437Z,19.48
2019-03-29T06:36:12.395Z,18.92
2019-03-29T06:38:38.471Z,18.17
2019-03-29T06:41:04.478Z,20.43
2019-03-29T06:43:30.503Z,17.62
2019-03-29T06:45:56.543Z,16.87
2019-03-29T06:48:22.680Z,16.50
2019-03-29T06:50:48.847Z,17.10
2019-03-29T06:53:15.059Z,15.85
2019-03-29T06:55:41.014Z,16.93
2019-03-29T06:58:06.966Z,26.30
2019-03-29T07:00:33.011Z,19.98
2019-03-29T07:02:59.086Z,32.10
2019-03-29T07:05:25.176Z,18.55
2019-03-29T07:07:51.302Z,18.60
2019-03-29T07:10:17.260Z,17.75
2019-03-29T07:12:43.282Z,19.45
2019-03-29T07:15:09.351Z,19.70
2019-03-29T07:17:35.431Z,17.92
2019-03-29T07:20:01.615Z,23.87
2019-03-29T07:22:27.645Z,24.27
2019-03-29T07:24:53.597Z,31.73
2019-03-29T07:27:19.557Z,21.42
2019-03-29T07:29:45.617Z,21.62
2019-03-29T07:32:11.640Z,20.52
2019-03-29T07:34:37.808Z,22.62
2019-03-29T07:37:05.777Z,29.37
2019-03-29T07:39:31.797Z,25.15
2019-03-29T07:41:58.024Z,20.80
2019-03-29T07:44:23.994Z,16.97
2019-03-29T07:46:50.056Z,17.60
2019-03-29T07:49:16.115Z,15.80
2019-03-29T07:51:42.146Z,14.80
2019-03-29T07:54:08.213Z,15.30
2019-03-29T07:56:34.297Z,15.75
2019-03-29T08:13:24.253Z,12.23
2019-03-29T08:15:50.299Z,10.70
2019-03-29T08:18:16.365Z,10.63
2019-03-29T08:20:44.382Z,11.30
2019-03-29T08:23:10.304Z,13.95
2019-03-29T08:25:36.317Z,15.35
2019-03-29T08:28:02.362Z,8.78
2019-03-29T08:30:28.369Z,9.78
2019-03-29T08:32:54.348Z,8.70
2019-03-29T08:35:20.495Z,8.98
2019-03-29T08:37:46.479Z,8.48
2019-03-29T08:40:12.459Z,9.48
2019-03-29T08:42:38.502Z,9.28
2019-03-29T08:45:04.527Z,10.70
2019-03-29T08:47:30.530Z,11.73
2019-03-29T08:49:56.587Z,7.95
2019-03-29T08:52:22.649Z,8.05
2019-03-29T08:54:51.200Z,7.60
2019-03-29T08:57:16.633Z,8.20
2019-03-29T08:59:42.659Z,7.70
2019-03-29T09:02:08.775Z,8.55
2019-03-29T09:04:34.863Z,8.65
2019-03-29T09:07:00.893Z,8.03
2019-03-29T09:09:26.934Z,9.05
2019-03-29T09:11:53.001Z,11.88
2019-03-29T09:14:19.095Z,7.62
2019-03-29T09:16:45.213Z,10.58
2019-03-29T09:19:11.249Z,7.97
2019-03-29T09:21:37.273Z,7.45
2019-03-29T09:24:03.262Z,17.07
2019-03-29T09:26:29.228Z,7.05
2019-03-29T09:28:55.214Z,7.30
2019-03-29T09:31:21.288Z,7.20
2019-03-29T09:33:47.320Z,24.67
2019-03-29T09:36:13.424Z,8.25
2019-03-29T09:38:39.417Z,7.95
2019-03-29T09:41:05.481Z,8.40
2019-03-29T09:43:31.455Z,12.65
2019-03-29T09:45:57.571Z,9.48
2019-03-29T09:48:23.558Z,8.28
2019-03-29T09:50:50.905Z,7.95
2019-03-29T09:53:17.392Z,9.45
2019-03-29T09:55:45.701Z,8.03
2019-03-29T09:58:11.498Z,9.03
2019-03-29T10:00:37.465Z,6.40
2019-03-29T10:03:03.434Z,8.63
2019-03-29T10:05:31.332Z,7.35
2019-03-29T10:07:57.550Z,6.42
2019-03-29T10:10:23.606Z,8.73
2019-03-29T10:12:49.753Z,9.55
2019-03-29T10:15:15.724Z,7.35
2019-03-29T10:17:41.769Z,7.53
2019-03-29T10:20:07.765Z,5.45
2019-03-29T10:22:33.724Z,6.78
2019-03-29T10:25:02.099Z,5.90
2019-03-29T10:27:27.612Z,5.55
2019-03-29T10:29:53.618Z,5.50
2019-03-29T10:32:19.686Z,5.87
2019-03-29T10:34:45.723Z,5.92
2019-03-29T10:37:11.720Z,5.20
2019-03-29T10:39:37.754Z,5.62
2019-03-29T10:42:03.751Z,5.33
2019-03-29T10:44:30.011Z,5.25
2019-03-29T10:46:56.503Z,5.12
2019-03-29T10:49:22.604Z,5.70
2019-03-29T10:51:48.755Z,5.50
2019-03-29T10:54:14.853Z,6.65
2019-03-29T10:56:40.975Z,5.70
2019-03-29T10:59:07.102Z,5.90
2019-03-29T11:01:33.115Z,7.20
2019-03-29T11:03:59.163Z,6.25
2019-03-29T11:06:25.119Z,6.30
2019-03-29T11:08:51.117Z,5.53
2019-03-29T11:11:17.232Z,6.67
2019-03-29T11:13:43.253Z,4.45
2019-03-29T11:16:09.295Z,6.20
2019-03-29T11:18:35.329Z,5.40
2019-03-29T11:21:01.405Z,6.33
2019-03-29T11:23:27.453Z,5.47
2019-03-29T11:25:53.455Z,5.25
2019-03-29T11:28:19.508Z,7.65
2019-03-29T11:30:45.647Z,6.12
2019-03-29T11:33:12.015Z,7.30
2019-03-29T11:35:38.125Z,7.97
2019-03-29T11:38:04.242Z,5.15
2019-03-29T11:40:30.323Z,5.60
2019-03-29T11:42:56.610Z,7.12
2019-03-29T11:45:22.617Z,6.22
2019-03-29T11:47:48.721Z,5.55
2019-03-29T11:50:14.738Z,6.87
2019-03-29T11:52:40.955Z,5.90
2019-03-29T11:55:06.970Z,6.50
2019-03-29T11:57:33.057Z,5.53
2019-03-29T11:59:59.053Z,4.78
2019-03-29T12:02:31.423Z,5.60
2019-03-29T12:04:53.055Z,7.28
2019-03-29T12:07:19.187Z,4.75
2019-03-29T12:09:45.177Z,6.00
2019-03-29T12:12:11.194Z,4.95
2019-03-29T12:14:37.172Z,5.28
2019-03-29T12:17:03.372Z,4.53
2019-03-29T12:19:29.311Z,4.87
2019-03-29T12:21:55.345Z,5.30
2019-03-29T12:24:21.389Z,5.22
2019-03-29T12:26:47.384Z,4.50
2019-03-29T12:29:13.377Z,4.20
2019-03-29T12:31:39.500Z,4.80
2019-03-29T12:34:05.818Z,4.72
2019-03-29T12:36:31.905Z,5.40
2019-03-29T12:38:57.969Z,4.97
2019-03-29T12:41:23.937Z,5.25
2019-03-29T12:43:55.992Z,5.28
2019-03-29T12:46:17.972Z,4.83
2019-03-29T12:48:44.082Z,4.80
2019-03-29T12:51:10.063Z,5.10
2019-03-29T12:53:36.132Z,4.97
2019-03-29T12:56:02.099Z,5.75
2019-03-29T12:58:28.224Z,6.45
2019-03-29T13:00:54.288Z,6.78
2019-03-29T13:03:20.271Z,5.83
2019-03-29T13:05:46.455Z,6.53
2019-03-29T13:08:12.694Z,6.97
2019-03-29T13:10:38.713Z,6.08
2019-03-29T13:13:04.869Z,6.42
2019-03-29T13:15:30.879Z,5.65
2019-03-29T13:17:56.979Z,5.30
2019-03-29T13:20:23.050Z,6.30
2019-03-29T13:22:49.168Z,6.35
2019-03-29T13:25:15.197Z,6.37
2019-03-29T13:27:41.298Z,6.08
2019-03-29T13:30:07.377Z,7.40
2019-03-29T13:32:33.722Z,5.97
2019-03-29T13:35:00.013Z,6.22
2019-03-29T13:37:25.984Z,5.35
2019-03-29T13:39:52.067Z,5.67
2019-03-29T13:42:18.086Z,5.85
2019-03-29T13:44:44.099Z,6.92
2019-03-29T13:47:10.258Z,5.78
2019-03-29T13:49:36.246Z,5.60
2019-03-29T13:52:02.276Z,5.87
2019-03-29T13:54:28.269Z,6.60
2019-03-29T13:56:54.334Z,6.83
2019-03-29T13:59:20.359Z,5.92
2019-03-29T14:01:46.479Z,6.03
2019-03-29T14:04:12.537Z,5.53
2019-03-29T14:06:38.483Z,5.37
2019-03-29T14:09:04.558Z,6.40
2019-03-29T14:11:30.633Z,6.50
2019-03-29T14:13:56.616Z,5.87
2019-03-29T14:16:22.592Z,5.60
2019-03-29T14:18:48.594Z,6.10
2019-03-29T14:21:14.629Z,6.45
2019-03-29T14:23:40.587Z,6.17
2019-03-29T14:26:06.739Z,6.83
2019-03-29T14:28:32.729Z,6.20
2019-03-29T14:30:58.788Z,6.45
2019-03-29T14:33:24.770Z,7.05
2019-03-29T14:35:50.828Z,7.12
2019-03-29T14:38:16.898Z,8.78
2019-03-29T14:40:42.995Z,8.35
2019-03-29T14:43:08.986Z,7.50
2019-03-29T14:45:34.954Z,8.20
2019-03-29T14:48:01.064Z,8.10
2019-03-29T14:50:27.086Z,7.45
2019-03-29T14:52:53.137Z,8.28
2019-03-29T14:55:19.136Z,12.15
2019-03-29T14:57:45.236Z,9.93
2019-03-29T15:00:11.704Z,8.40
2019-03-29T15:02:37.768Z,6.12
2019-03-29T15:05:03.815Z,6.58
2019-03-29T15:07:29.937Z,6.55
2019-03-29T15:09:56.132Z,7.62
2019-03-29T15:12:22.241Z,6.70
2019-03-29T15:14:48.207Z,6.97
2019-03-29T15:17:14.319Z,6.40
2019-03-29T15:19:40.295Z,6.75
2019-03-29T15:22:06.225Z,7.17
2019-03-29T15:24:32.204Z,7.28
2019-03-29T15:26:58.266Z,7.75
2019-03-29T15:29:24.237Z,8.03
2019-03-29T15:31:50.237Z,7.83
2019-03-29T15:34:16.276Z,7.05
2019-03-29T15:36:42.318Z,6.40
2019-03-29T15:39:08.324Z,7.62
2019-03-29T15:41:34.393Z,7.37
2019-03-29T15:44:00.384Z,7.37
2019-03-29T15:46:26.367Z,7.95
2019-03-29T15:48:52.435Z,8.43
2019-03-29T15:51:18.402Z,18.67
2019-03-29T15:53:44.388Z,12.33
2019-03-29T15:56:10.417Z,11.38
2019-03-29T15:58:36.528Z,10.80
2019-03-29T16:01:02.550Z,7.92
2019-03-29T16:03:28.573Z,7.30
2019-03-29T16:05:54.569Z,8.05
2019-03-29T16:08:20.648Z,8.95
2019-03-29T16:10:46.664Z,10.15
2019-03-29T16:13:12.655Z,10.35
2019-03-29T16:15:38.658Z,8.40
2019-03-29T16:18:04.742Z,9.30
2019-03-29T16:20:30.846Z,7.78
2019-03-29T16:22:56.880Z,7.95
2019-03-29T16:25:22.861Z,9.75
2019-03-29T16:27:48.935Z,9.25
2019-03-29T16:30:15.109Z,9.70
2019-03-29T16:32:41.222Z,9.23
2019-03-29T16:35:07.321Z,9.45
2019-03-29T16:37:33.460Z,8.53
2019-03-29T16:39:59.684Z,8.80
2019-03-29T16:42:25.713Z,11.28
2019-03-29T16:44:51.899Z,9.78
2019-03-29T16:47:17.948Z,9.03
2019-03-29T16:49:43.948Z,8.28
2019-03-29T16:52:10.019Z,10.40
2019-03-29T16:54:36.168Z,9.83
2019-03-29T16:57:02.245Z,9.40
2019-03-29T16:59:28.313Z,9.53
2019-03-29T17:01:55.576Z,35.83
2019-03-29T17:04:21.766Z,25.37
2019-03-29T17:06:47.724Z,21.93
2019-03-29T17:09:13.808Z,15.58
2019-03-29T17:11:40.021Z,20.92
2019-03-29T17:14:06.044Z,17.02
2019-03-29T17:16:32.091Z,22.10
2019-03-29T17:18:58.060Z,15.40
2019-03-29T17:21:24.166Z,14.20
2019-03-29T17:23:52.733Z,16.52
2019-03-29T17:26:18.073Z,18.00
2019-03-29T17:28:44.082Z,18.45
2019-03-29T17:31:11.556Z,22.13
2019-03-29T17:33:37.571Z,15.32
2019-03-29T17:36:06.426Z,16.77
2019-03-29T17:38:32.489Z,15.38
2019-03-29T17:40:58.666Z,17.20
2019-03-29T17:43:24.627Z,13.62
2019-03-29T17:45:50.653Z,16.90
2019-03-29T17:48:16.645Z,14.23
2019-03-29T17:50:42.720Z,16.95
2019-03-29T17:53:08.689Z,15.72
2019-03-29T17:55:34.710Z,15.20
2019-03-29T17:58:00.803Z,14.43
2019-03-29T18:00:26.920Z,19.50
2019-03-29T18:02:52.920Z,20.02
2019-03-29T18:05:18.894Z,17.73
2019-03-29T18:07:44.975Z,18.20
2019-03-29T18:10:10.951Z,24.52
2019-03-29T18:12:37.086Z,22.37
2019-03-29T18:15:03.313Z,21.75
2019-03-29T18:17:29.383Z,28.40
2019-03-29T18:19:55.438Z,32.85
2019-03-29T18:22:21.452Z,33.70
2019-03-29T18:24:47.422Z,31.87
2019-03-29T18:27:13.428Z,35.78
2019-03-29T18:29:39.462Z,39.63
2019-03-29T18:32:05.587Z,30.97
2019-03-29T18:34:31.547Z,35.78
2019-03-29T18:36:57.588Z,36.77
2019-03-29T18:39:23.569Z,31.95
2019-03-29T18:41:49.627Z,33.35
2019-03-29T18:44:15.754Z,32.15
2019-03-29T18:46:44.902Z,29.37
2019-03-29T18:49:09.669Z,32.38
2019-03-29T18:51:35.647Z,32.75
2019-03-29T18:54:01.652Z,23.47
2019-03-29T18:56:27.750Z,27.02
2019-03-29T18:58:53.806Z,25.45
2019-03-29T19:04:00.689Z,27.13
2019-03-29T19:06:28.456Z,33.33
2019-03-29T19:08:56.369Z,32.37
2019-03-29T19:11:24.234Z,36.60
2019-03-29T19:13:51.978Z,41.87
2019-03-29T19:16:19.712Z,39.07
2019-03-29T19:18:47.462Z,46.83
2019-03-29T19:21:15.309Z,45.67
2019-03-29T19:23:43.196Z,44.97
2019-03-29T19:26:10.958Z,46.53
2019-03-29T19:28:38.707Z,43.87
2019-03-29T19:31:06.453Z,45.00
2019-03-29T19:33:34.175Z,80.63
2019-03-29T19:36:01.883Z,83.73
2019-03-29T19:38:29.666Z,84.80
2019-03-29T19:40:57.391Z,76.47
2019-03-29T19:43:25.300Z,72.87
2019-03-29T19:45:53.292Z,63.60
2019-03-29T19:48:21.023Z,65.30
2019-03-29T19:50:48.814Z,57.87
2019-03-29T19:53:16.637Z,58.20
2019-03-29T19:55:44.547Z,54.67
2019-03-29T19:58:12.483Z,52.27
2019-03-29T20:00:40.498Z,40.93
2019-03-29T20:03:08.336Z,64.47
2019-03-29T20:05:36.107Z,54.73
2019-03-29T20:08:04.056Z,46.87
2019-03-29T20:10:31.901Z,38.30
2019-03-29T20:12:59.707Z,33.93
2019-03-29T20:15:27.439Z,33.17
2019-03-29T20:17:55.253Z,31.97
2019-03-29T20:20:22.957Z,36.43
2019-03-29T20:22:50.709Z,39.23
2019-03-29T20:25:18.567Z,40.10
2019-03-29T20:27:46.403Z,57.10
2019-03-29T20:30:14.109Z,53.40
2019-03-29T20:32:41.965Z,38.23
2019-03-29T20:35:09.831Z,34.63
2019-03-29T20:37:37.603Z,37.30
2019-03-29T20:40:05.464Z,34.10
2019-03-29T20:42:33.236Z,31.27
2019-03-29T20:45:00.974Z,30.00
2019-03-29T20:47:41.449Z,29.10
2019-03-29T20:49:58.344Z,31.70
2019-03-29T20:52:26.522Z,32.57
2019-03-29T20:54:54.389Z,33.10
2019-03-29T20:57:22.233Z,34.27
2019-03-29T20:59:50.060Z,28.80
2019-03-29T21:02:18.236Z,32.87
2019-03-29T21:04:46.144Z,31.07
2019-03-29T21:07:13.935Z,34.63
2019-03-29T21:09:41.701Z,33.20
2019-03-29T21:12:09.522Z,40.13
2019-03-29T21:14:37.261Z,41.20
2019-03-29T21:17:05.082Z,39.70
2019-03-29T21:19:32.895Z,41.77
2019-03-29T21:22:00.688Z,39.73
2019-03-29T21:24:28.540Z,42.30
2019-03-29T21:26:56.530Z,37.90
2019-03-29T21:29:24.282Z,39.40
2019-03-29T21:31:52.025Z,43.97
2019-03-29T21:34:19.827Z,56.80
2019-03-29T21:36:47.640Z,76.13
2019-03-29T21:39:15.387Z,84.10
2019-03-29T21:41:43.120Z,75.73
2019-03-29T21:44:11.170Z,68.10
2019-03-29T21:46:38.916Z,65.37
2019-03-29T21:49:06.761Z,71.40
2019-03-29T21:51:34.615Z,72.43
2019-03-29T21:54:02.442Z,71.73
2019-03-29T21:56:30.337Z,69.13
2019-03-29T21:58:58.096Z,60.60
2019-03-29T22:01:26.006Z,58.33
2019-03-29T22:03:53.764Z,55.57
2019-03-29T22:06:21.603Z,57.40
2019-03-29T22:08:49.469Z,62.97
2019-03-29T22:11:17.411Z,56.47
2019-03-29T22:13:45.259Z,54.33
2019-03-29T22:16:13.006Z,52.17
2019-03-29T22:18:40.811Z,50.27
2019-03-29T22:21:08.664Z,41.77
2019-03-29T22:23:36.484Z,34.23
2019-03-29T22:26:04.469Z,32.87
2019-03-29T22:28:32.327Z,27.83
2019-03-29T22:31:00.052Z,27.73
2019-03-29T22:33:27.830Z,27.00
2019-03-29T22:35:55.610Z,27.70
2019-03-29T22:38:23.346Z,30.87
2019-03-29T22:40:51.135Z,30.73
2019-03-29T22:43:18.863Z,29.53
2019-03-29T22:45:47.318Z,37.00
2019-03-29T22:48:15.228Z,31.73
2019-03-29T22:50:43.012Z,30.53
2019-03-29T22:53:10.794Z,28.13
2019-03-29T22:55:38.867Z,39.43
2019-03-29T22:58:06.619Z,27.97
2019-03-29T23:00:38.751Z,29.20
2019-03-29T23:03:06.579Z,28.53
2019-03-29T23:05:34.357Z,27.10
2019-03-29T23:08:02.207Z,27.67
2019-03-29T23:10:30.090Z,28.03
2019-03-29T23:12:57.947Z,27.40
2019-03-29T23:15:25.729Z,29.37
2019-03-29T23:17:53.579Z,28.47
2019-03-29T23:20:21.353Z,25.20
2019-03-29T23:22:49.228Z,25.87
2019-03-29T23:25:17.175Z,24.57
2019-03-29T23:27:44.897Z,25.63
2019-03-29T23:30:12.638Z,25.93
2019-03-29T23:32:40.485Z,26.60
2019-03-29T23:35:08.255Z,25.53
2019-03-29T23:37:36.021Z,28.40
2019-03-29T23:40:04.044Z,25.00
2019-03-29T23:42:31.459Z,25.17
2019-03-29T23:44:59.225Z,27.27
2019-03-29T23:47:26.989Z,26.77
2019-03-29T23:49:54.690Z,28.13
2019-03-29T23:52:22.402Z,32.67
2019-03-29T23:54:50.163Z,29.30
2019-03-29T23:57:17.888Z,26.53
2019-03-29T23:59:46.000Z,24.72
